Terminal Aerodrome Forecast
Issued by NWS

Home | Current Version | Previous Version | Text Only | Print | Product List | Glossary On
Versions: 1 2 3 4 5 6 7 8 9 10 11 12 13 14
220
FTUS43 KPAH 230900 AAA
TAFCGI
TAF AMD
KCGI 230900Z 2309/2406 VRB02KT 1/4SM FG VV002
      TEMPO 2309/2312 3SM BR SCT002
     FM231330 09006KT P6SM SCT040=

USA.gov is the U.S. government's official web portal to all federal, state and local government web resources and services.